Time;durP1;ratioP1;P1;durP2;ratioP2;P2;SDS_P1;SDS_P2;PMS_P1;PMS_P2;Temp;Humidity;BMP_temperature;BMP_pressure;BME280_temperature;BME280_humidity;BME280_pressure;Samples;Min_cycle;Max_cycle;Signal;HPM_P1;HPM_P2
2024/01/08 00:00:37;;;;;;;12.40;5.60;;;;;;;-3.03;100.00;102982.09;5048635;28;20033;-72
2024/01/08 00:03:02;;;;;;;13.68;6.53;;;;;;;-3.01;100.00;102975.94;5050503;28;20131;-72
2024/01/08 00:05:28;;;;;;;14.07;6.70;;;;;;;-3.05;100.00;102973.47;5052473;28;20489;-72
2024/01/08 00:07:53;;;;;;;11.45;6.32;;;;;;;-3.06;100.00;102972.63;5051120;28;20090;-72
2024/01/08 00:10:18;;;;;;;16.00;7.45;;;;;;;-3.05;100.00;102974.31;5052165;28;20064;-72
2024/01/08 00:12:44;;;;;;;18.83;8.23;;;;;;;-3.02;100.00;102968.13;5052325;28;20110;-72
2024/01/08 00:15:09;;;;;;;14.40;8.00;;;;;;;-3.00;100.00;102963.72;5050868;28;20495;-72
2024/01/08 00:17:34;;;;;;;15.63;7.90;;;;;;;-3.02;100.00;102979.44;5052166;28;20033;-71
2024/01/08 00:20:00;;;;;;;18.95;8.88;;;;;;;-3.10;100.00;102956.22;5050806;28;20064;-72
2024/01/08 00:22:25;;;;;;;20.75;9.27;;;;;;;-3.05;100.00;102963.88;5052005;28;20091;-72
2024/01/08 00:24:50;;;;;;;18.30;8.50;;;;;;;-3.06;100.00;102969.19;5051849;28;20040;-72
2024/01/08 00:27:16;;;;;;;16.38;8.30;;;;;;;-3.02;100.00;102975.97;5051925;28;20145;-72
2024/01/08 00:29:41;;;;;;;14.68;7.65;;;;;;;-3.01;100.00;102977.66;5051970;28;20048;-71
2024/01/08 00:32:07;;;;;;;19.98;8.50;;;;;;;-3.03;100.00;102972.50;5051961;28;20029;-72
2024/01/08 00:34:33;;;;;;;21.58;10.73;;;;;;;-3.01;100.00;102980.28;5050605;28;20032;-72
2024/01/08 00:36:58;;;;;;;20.33;9.32;;;;;;;-3.00;100.00;102980.22;5051943;28;20041;-72
2024/01/08 00:39:25;;;;;;;26.38;12.23;;;;;;;-3.01;100.00;102980.28;5051706;28;20941;-72
2024/01/08 00:41:51;;;;;;;27.80;14.95;;;;;;;-3.03;100.00;102967.28;5051871;28;20037;-72
2024/01/08 00:44:16;;;;;;;25.23;15.15;;;;;;;-3.00;100.00;102974.16;5051714;28;20025;-72
2024/01/08 00:46:42;;;;;;;29.55;15.32;;;;;;;-3.00;100.00;102976.78;5051715;28;20385;-72
2024/01/08 00:49:07;;;;;;;26.08;13.65;;;;;;;-3.03;100.00;102969.06;5051678;28;20036;-72
2024/01/08 00:51:32;;;;;;;29.60;16.92;;;;;;;-2.97;100.00;102974.88;5051642;28;20033;-72
2024/01/08 00:53:58;;;;;;;26.60;13.90;;;;;;;-3.06;100.00;102963.97;5050135;28;20052;-72
2024/01/08 00:56:23;;;;;;;25.95;13.70;;;;;;;-2.95;100.00;102967.00;5051349;28;20134;-72
2024/01/08 00:58:48;;;;;;;22.50;13.43;;;;;;;-2.92;100.00;102982.56;5051459;28;20062;-72
2024/01/08 01:01:15;;;;;;;25.17;12.25;;;;;;;-3.02;100.00;102962.91;5051221;28;20534;-72
2024/01/08 01:03:40;;;;;;;19.67;10.75;;;;;;;-3.01;100.00;102975.94;5051293;28;20036;-72
2024/01/08 01:06:06;;;;;;;19.50;11.23;;;;;;;-3.04;100.00;102962.13;5051319;28;20079;-71
2024/01/08 01:08:31;;;;;;;17.13;8.23;;;;;;;-3.12;100.00;102971.09;5051300;28;20033;-72
2024/01/08 01:10:56;;;;;;;20.30;9.57;;;;;;;-3.04;100.00;102969.94;5051185;28;20029;-72
2024/01/08 01:13:22;;;;;;;16.67;7.40;;;;;;;-3.07;100.00;102973.50;5050794;28;20332;-72
2024/01/08 01:15:47;;;;;;;14.00;7.63;;;;;;;-3.12;100.00;102973.72;5051127;28;20037;-71
2024/01/08 01:18:13;;;;;;;12.13;6.38;;;;;;;-3.04;100.00;102976.00;5049795;28;20028;-71
2024/01/08 01:20:38;;;;;;;18.10;7.95;;;;;;;-3.13;100.00;102973.75;5050982;28;20032;-71
2024/01/08 01:23:03;;;;;;;17.05;7.43;;;;;;;-3.06;100.00;102987.44;5050871;28;20480;-72
2024/01/08 01:25:29;;;;;;;18.00;7.68;;;;;;;-3.18;100.00;102976.50;5050802;28;20048;-71
2024/01/08 01:27:54;;;;;;;14.43;7.05;;;;;;;-3.13;100.00;102978.97;5050898;28;20033;-71
2024/01/08 01:30:19;;;;;;;14.15;8.23;;;;;;;-3.18;100.00;102979.13;5050797;28;20037;-71
2024/01/08 01:32:45;;;;;;;16.15;7.32;;;;;;;-3.21;100.00;102979.25;5050806;28;20028;-71
2024/01/08 01:35:10;;;;;;;16.30;6.63;;;;;;;-3.19;100.00;102987.88;5050830;28;20394;-71
2024/01/08 01:37:36;;;;;;;16.42;8.55;;;;;;;-3.25;100.00;102979.41;5050601;28;20033;-72
2024/01/08 01:40:01;;;;;;;13.80;6.22;;;;;;;-3.27;100.00;102974.25;5049452;28;20031;-72
2024/01/08 01:42:27;;;;;;;15.40;7.30;;;;;;;-3.40;100.00;102970.38;5050674;28;20033;-71
2024/01/08 01:44:52;;;;;;;14.82;8.00;;;;;;;-3.36;100.00;102982.38;5049243;28;20052;-72
2024/01/08 01:47:18;;;;;;;12.73;5.85;;;;;;;-3.38;100.00;102979.84;5050591;28;20033;-72
2024/01/08 01:49:43;;;;;;;13.88;6.85;;;;;;;-3.27;100.00;102986.44;5049110;28;20048;-72
2024/01/08 01:52:09;;;;;;;8.68;5.85;;;;;;;-3.27;100.00;102997.72;5050227;28;20044;-72
2024/01/08 01:54:35;;;;;;;9.82;4.97;;;;;;;-3.29;100.00;102994.31;5050419;28;20119;-72
2024/01/08 01:57:02;;;;;;;12.73;5.88;;;;;;;-3.28;100.00;102988.19;5050172;28;20045;-72
2024/01/08 01:59:28;;;;;;;11.05;5.50;;;;;;;-3.25;100.00;102995.06;5049001;28;20116;-72
2024/01/08 02:01:55;;;;;;;11.85;6.20;;;;;;;-3.30;100.00;102997.84;5050074;28;20120;-72
2024/01/08 02:04:23;;;;;;;12.57;6.32;;;;;;;-3.37;100.00;102986.75;5050130;28;20396;-72
2024/01/08 02:06:50;;;;;;;12.10;5.45;;;;;;;-3.35;100.00;102991.94;5048791;28;20450;-72
2024/01/08 02:09:16;;;;;;;12.80;5.57;;;;;;;-3.43;100.00;103017.41;5050084;28;20025;-72
2024/01/08 02:11:42;;;;;;;10.63;5.22;;;;;;;-3.50;100.00;102990.69;5049966;28;20137;-72
2024/01/08 02:14:08;;;;;;;12.00;5.50;;;;;;;-3.54;100.00;102992.56;5049962;28;20067;-72
2024/01/08 02:16:35;;;;;;;12.25;5.75;;;;;;;-3.56;100.00;102994.38;5050011;28;20481;-72
2024/01/08 02:19:01;;;;;;;11.43;4.45;;;;;;;-3.63;100.00;102995.47;5049860;28;20028;-72
2024/01/08 02:21:26;;;;;;;9.70;5.22;;;;;;;-3.68;100.00;102989.56;5050199;28;20035;-72
2024/01/08 02:23:52;;;;;;;9.32;4.78;;;;;;;-3.74;100.00;102989.78;5049828;28;20466;-72
2024/01/08 02:26:17;;;;;;;9.52;4.22;;;;;;;-3.76;100.00;103002.84;5049002;28;20449;-72
2024/01/08 02:28:43;;;;;;;10.45;4.88;;;;;;;-3.78;100.00;102996.81;5049563;28;20048;-72
2024/01/08 02:31:08;;;;;;;8.50;4.45;;;;;;;-3.76;100.00;103000.25;5049657;28;20024;-72
2024/01/08 02:33:34;;;;;;;8.73;4.38;;;;;;;-3.78;100.00;103003.81;5048301;28;20047;-72
2024/01/08 02:36:00;;;;;;;9.27;4.30;;;;;;;-3.84;100.00;103006.63;5049044;28;20029;-72
2024/01/08 02:38:26;;;;;;;7.85;4.22;;;;;;;-3.85;100.00;103004.91;5049579;28;20474;-72
2024/01/08 02:40:51;;;;;;;6.30;3.28;;;;;;;-3.87;100.00;103004.97;5049503;28;20039;-71
2024/01/08 02:43:16;;;;;;;8.93;3.83;;;;;;;-3.86;100.00;103016.22;5049444;28;20065;-71
2024/01/08 02:45:42;;;;;;;8.40;4.25;;;;;;;-3.89;100.00;103009.38;5049420;28;20060;-71
2024/01/08 02:48:08;;;;;;;11.55;4.55;;;;;;;-3.97;100.00;103013.97;5049258;28;20995;-72
2024/01/08 02:50:33;;;;;;;10.25;3.47;;;;;;;-3.99;100.00;103014.00;5047768;28;20028;-72
2024/01/08 02:52:58;;;;;;;12.00;5.07;;;;;;;-3.98;100.00;103010.53;5048956;28;20049;-72
2024/01/08 02:55:24;;;;;;;11.82;3.88;;;;;;;-3.98;100.00;103017.50;5047922;28;20052;-72
2024/01/08 02:57:49;;;;;;;7.65;3.40;;;;;;;-4.03;100.00;103011.56;5049118;28;20028;-72
2024/01/08 03:00:15;;;;;;;11.20;4.07;;;;;;;-4.02;100.00;103008.06;5047949;28;20041;-72
2024/01/08 03:02:40;;;;;;;9.60;4.72;;;;;;;-3.98;100.00;103020.94;5047917;28;20025;-71
2024/01/08 03:05:06;;;;;;;9.27;4.35;;;;;;;-4.04;100.00;103005.50;5048914;28;20384;-72
2024/01/08 03:07:31;;;;;;;9.52;4.47;;;;;;;-3.95;100.00;103014.78;5047767;28;20040;-72
2024/01/08 03:09:58;;;;;;;6.40;3.83;;;;;;;-3.93;100.00;103019.94;5047713;28;20116;-72
2024/01/08 03:12:24;;;;;;;13.68;4.82;;;;;;;-3.93;100.00;103018.22;5048930;28;20029;-72
2024/01/08 03:14:50;;;;;;;8.57;4.00;;;;;;;-3.94;100.00;103007.81;5049103;28;20032;-72
2024/01/08 03:17:16;;;;;;;10.18;4.13;;;;;;;-3.92;100.00;103009.47;5049038;28;20031;-72
2024/01/08 03:19:41;;;;;;;11.32;4.72;;;;;;;-3.89;100.00;103014.56;5049024;28;20032;-72
2024/01/08 03:22:06;;;;;;;11.45;4.63;;;;;;;-3.83;100.00;103016.13;5048859;28;20522;-72
2024/01/08 03:24:32;;;;;;;7.90;3.75;;;;;;;-3.84;100.00;103024.88;5048942;28;20120;-72
2024/01/08 03:26:57;;;;;;;10.55;4.13;;;;;;;-3.85;100.00;103010.09;5048634;28;20060;-72
2024/01/08 03:29:23;;;;;;;13.13;5.88;;;;;;;-3.80;100.00;103019.50;5048757;28;20044;-72
2024/01/08 03:31:49;;;;;;;11.57;4.95;;;;;;;-3.84;100.00;103010.06;5048765;28;20035;-72
2024/01/08 03:34:14;;;;;;;11.23;4.32;;;;;;;-3.79;100.00;103015.13;5048645;28;20029;-72
2024/01/08 03:36:49;;;;;;;12.02;4.15;;;;;;;-3.77;100.00;103015.94;5050221;28;20435;-72
2024/01/08 03:39:16;;;;;;;7.72;3.60;;;;;;;-3.76;100.00;103015.88;5052926;28;20033;-72
2024/01/08 03:41:42;;;;;;;9.45;4.40;;;;;;;-3.73;100.00;103019.31;5052607;28;20036;-72
2024/01/08 03:44:08;;;;;;;10.77;3.92;;;;;;;-3.80;100.00;103006.47;5052824;28;20021;-72
2024/01/08 03:46:34;;;;;;;11.40;3.92;;;;;;;-3.76;100.00;103005.44;5052799;28;20061;-71
2024/01/08 03:49:01;;;;;;;7.57;3.80;;;;;;;-3.66;100.00;103020.81;5051125;28;20718;-72
2024/01/08 03:51:26;;;;;;;10.43;3.97;;;;;;;-3.64;100.00;103017.25;5052539;28;20040;-72
2024/01/08 03:53:53;;;;;;;10.10;4.28;;;;;;;-3.64;100.00;103018.97;5052441;28;20443;-72
2024/01/08 03:56:18;;;;;;;7.35;3.58;;;;;;;-3.61;100.00;103019.75;5052871;28;20121;-72
2024/01/08 03:58:43;;;;;;;11.25;5.13;;;;;;;-3.64;100.00;103004.22;5051237;28;20392;-72
2024/01/08 04:01:09;;;;;;;10.82;5.10;;;;;;;-3.57;100.00;103010.06;5052503;28;20040;-72
2024/01/08 04:03:34;;;;;;;11.27;4.05;;;;;;;-3.55;100.00;103011.72;5050749;28;20037;-72
2024/01/08 04:05:59;;;;;;;7.97;4.38;;;;;;;-3.54;100.00;103013.44;5052410;28;20047;-72
2024/01/08 04:08:25;;;;;;;7.43;3.90;;;;;;;-3.55;100.00;103009.09;5052294;28;20039;-72
2024/01/08 04:10:50;;;;;;;9.25;5.00;;;;;;;-3.52;100.00;103006.38;5052332;28;20072;-72
2024/01/08 04:13:15;;;;;;;7.97;4.00;;;;;;;-3.51;100.00;103015.09;5052232;28;20747;-72
2024/01/08 04:15:41;;;;;;;14.60;5.78;;;;;;;-3.52;100.00;103014.22;5052212;28;20029;-72
2024/01/08 04:18:07;;;;;;;8.30;3.90;;;;;;;-3.50;100.00;103008.97;5052274;28;20028;-72
2024/01/08 04:20:32;;;;;;;9.65;4.05;;;;;;;-3.49;100.00;103009.81;5050808;28;20036;-72
2024/01/08 04:22:58;;;;;;;7.32;3.85;;;;;;;-3.54;100.00;103002.13;5052125;28;20029;-72
2024/01/08 04:25:23;;;;;;;6.60;3.67;;;;;;;-3.49;100.00;103002.81;5052011;28;20040;-72
2024/01/08 04:27:48;;;;;;;11.65;5.00;;;;;;;-3.46;100.00;103015.75;5051663;28;20040;-72
2024/01/08 04:30:14;;;;;;;10.73;5.35;;;;;;;-3.42;100.00;103014.75;5051950;28;20148;-72
2024/01/08 04:32:39;;;;;;;8.48;4.10;;;;;;;-3.45;100.00;103012.25;5050547;28;20044;-72
2024/01/08 04:35:05;;;;;;;10.10;5.18;;;;;;;-3.41;100.00;103010.38;5050425;28;20072;-72
2024/01/08 04:37:31;;;;;;;7.72;3.78;;;;;;;-3.38;100.00;103018.97;5050626;28;20040;-71
2024/01/08 04:39:56;;;;;;;6.15;4.18;;;;;;;-3.31;100.00;103022.22;5051752;28;20037;-72
2024/01/08 04:42:21;;;;;;;8.82;4.60;;;;;;;-3.33;100.00;103010.97;5050405;28;20504;-72
2024/01/08 04:44:47;;;;;;;8.60;4.82;;;;;;;-3.28;100.00;103021.25;5051732;28;20052;-72
2024/01/08 04:47:13;;;;;;;10.93;4.72;;;;;;;-3.33;100.00;103019.69;5050346;28;20037;-72
2024/01/08 04:49:38;;;;;;;13.00;4.53;;;;;;;-3.32;100.00;103017.91;5049494;28;20032;-72
2024/01/08 04:52:04;;;;;;;13.60;6.38;;;;;;;-3.29;100.00;103016.97;5051386;28;20048;-72
2024/01/08 04:54:29;;;;;;;10.18;4.50;;;;;;;-3.28;100.00;103016.88;5051468;28;20496;-72
2024/01/08 04:56:55;;;;;;;7.22;3.70;;;;;;;-3.24;100.00;103017.66;5051466;28;20044;-72
2024/01/08 04:59:22;;;;;;;7.75;5.13;;;;;;;-3.25;100.00;103026.38;5051326;28;20055;-72
2024/01/08 05:01:49;;;;;;;13.95;6.13;;;;;;;-3.27;100.00;103016.00;5051495;28;20057;-72
2024/01/08 05:04:14;;;;;;;8.90;4.40;;;;;;;-3.33;100.00;103018.78;5033621;28;20060;-72
2024/01/08 05:06:39;;;;;;;11.02;4.53;;;;;;;-3.26;100.00;103011.63;5050024;28;20091;-72
2024/01/08 05:09:05;;;;;;;9.68;4.28;;;;;;;-3.28;100.00;103010.81;5051313;28;20032;-72
2024/01/08 05:11:30;;;;;;;12.10;5.47;;;;;;;-3.33;100.00;103018.78;5049750;28;20062;-72
2024/01/08 05:13:55;;;;;;;9.75;5.72;;;;;;;-3.38;100.00;102994.63;5033154;28;20044;-72
2024/01/08 05:16:21;;;;;;;10.68;4.97;;;;;;;-3.30;100.00;103018.72;5050973;28;20048;-72
2024/01/08 05:18:46;;;;;;;10.40;4.43;;;;;;;-3.32;100.00;103012.69;5051153;28;20082;-72
2024/01/08 05:21:15;;;;;;;10.13;5.28;;;;;;;-3.32;100.00;103010.94;5051072;28;20357;-72
2024/01/08 05:23:40;;;;;;;11.25;6.43;;;;;;;-3.28;100.00;103013.44;5050959;28;20033;-72
2024/01/08 05:26:06;;;;;;;14.05;4.97;;;;;;;-3.28;100.00;103019.50;5050854;28;20114;-72
2024/01/08 05:28:32;;;;;;;10.60;5.45;;;;;;;-3.32;100.00;103007.47;5050805;28;20060;-72
2024/01/08 05:30:57;;;;;;;12.57;6.13;;;;;;;-3.25;100.00;103015.94;5049516;28;20545;-72
2024/01/08 05:33:23;;;;;;;12.90;6.45;;;;;;;-3.26;100.00;103016.84;5050569;28;20438;-72
2024/01/08 05:35:48;;;;;;;13.05;4.80;;;;;;;-3.30;100.00;103010.91;5050711;28;20476;-72
2024/01/08 05:38:14;;;;;;;14.77;5.43;;;;;;;-3.28;100.00;103008.22;5050514;28;20106;-72
2024/01/08 05:40:39;;;;;;;13.80;5.70;;;;;;;-3.26;100.00;103017.69;5050598;28;20032;-72
2024/01/08 05:43:05;;;;;;;13.45;5.13;;;;;;;-3.26;100.00;103009.88;5049120;28;20094;-72
2024/01/08 05:45:31;;;;;;;9.77;4.20;;;;;;;-3.30;100.00;103003.06;5050438;28;20029;-72
2024/01/08 05:47:57;;;;;;;12.07;5.40;;;;;;;-3.22;100.00;103013.22;5050579;28;20036;-72
2024/01/08 05:50:25;;;;;;;12.52;6.22;;;;;;;-3.21;100.00;103004.50;5050453;28;20025;-72
2024/01/08 05:52:52;;;;;;;15.75;7.55;;;;;;;-3.21;100.00;103010.56;5050219;28;20056;-72
2024/01/08 05:55:18;;;;;;;11.05;5.80;;;;;;;-3.24;100.00;103008.06;5050257;28;20120;-72
2024/01/08 05:57:43;;;;;;;14.23;5.53;;;;;;;-3.24;100.00;103010.66;5049002;28;20179;-72
2024/01/08 06:00:09;;;;;;;12.38;5.97;;;;;;;-3.16;100.00;103016.47;5050137;28;20120;-72
2024/01/08 06:02:34;;;;;;;13.65;6.35;;;;;;;-3.18;100.00;103020.88;5049944;28;20033;-72
2024/01/08 06:05:00;;;;;;;11.90;5.53;;;;;;;-3.24;100.00;103005.44;5050225;28;20547;-72
2024/01/08 06:07:25;;;;;;;13.48;6.55;;;;;;;-3.14;100.00;103006.84;5050013;28;20135;-73
2024/01/08 06:09:50;;;;;;;11.50;6.30;;;;;;;-3.10;100.00;103010.19;5048662;28;20068;-72
2024/01/08 06:12:16;;;;;;;13.95;6.28;;;;;;;-3.12;100.00;102994.59;5048620;28;20057;-73
2024/01/08 06:14:41;;;;;;;14.70;6.32;;;;;;;-3.18;100.00;102996.53;5048580;28;20500;-72
2024/01/08 06:17:08;;;;;;;14.23;5.95;;;;;;;-3.10;100.00;103008.41;5049936;28;20427;-72
2024/01/08 06:19:34;;;;;;;12.48;6.50;;;;;;;-3.13;100.00;102995.47;5050358;28;20415;-73
2024/01/08 06:21:59;;;;;;;14.20;6.07;;;;;;;-3.04;100.00;103006.50;5049842;28;20028;-72
2024/01/08 06:24:25;;;;;;;12.38;6.03;;;;;;;-3.01;100.00;103009.84;5049889;28;20115;-73
2024/01/08 06:26:50;;;;;;;16.42;7.22;;;;;;;-3.04;100.00;103007.34;5048427;28;20080;-72
2024/01/08 06:29:16;;;;;;;17.83;7.55;;;;;;;-2.99;100.00;103004.56;5049637;28;20033;-72
2024/01/08 06:31:42;;;;;;;14.82;6.45;;;;;;;-3.00;100.00;102990.66;5049386;28;20117;-72
2024/01/08 06:34:08;;;;;;;11.82;6.47;;;;;;;-2.97;100.00;103008.81;5049312;28;20108;-74
2024/01/08 06:36:34;;;;;;;13.80;6.85;;;;;;;-2.95;100.00;103006.16;5049541;28;20051;-72
2024/01/08 06:39:00;;;;;;;11.82;5.88;;;;;;;-2.96;100.00;103000.09;5049504;28;20058;-73
2024/01/08 06:41:25;;;;;;;13.57;6.38;;;;;;;-2.91;100.00;103003.41;5049481;28;20047;-73
2024/01/08 06:43:50;;;;;;;12.70;6.10;;;;;;;-2.92;100.00;102990.41;5049465;28;20021;-72
2024/01/08 06:46:18;;;;;;;16.98;9.15;;;;;;;-2.90;100.00;102993.81;5047929;28;20400;-73
2024/01/08 06:48:44;;;;;;;13.68;5.38;;;;;;;-2.89;100.00;102998.09;5049362;28;20040;-72
2024/01/08 06:51:11;;;;;;;15.77;7.22;;;;;;;-2.88;100.00;102999.84;5048036;28;20032;-73
2024/01/08 06:53:36;;;;;;;13.35;6.55;;;;;;;-2.89;100.00;102996.34;5047769;28;20052;-73
2024/01/08 06:56:02;;;;;;;14.88;6.50;;;;;;;-2.83;100.00;102997.88;5048993;28;20391;-73
2024/01/08 06:58:27;;;;;;;11.50;5.60;;;;;;;-2.83;100.00;103003.09;5048967;28;20083;-72
2024/01/08 07:00:52;;;;;;;14.95;6.95;;;;;;;-2.81;100.00;102996.06;5031333;28;20041;-72
2024/01/08 07:03:18;;;;;;;12.80;5.53;;;;;;;-2.83;100.00;102994.41;5047867;28;20025;-73
2024/01/08 07:05:43;;;;;;;13.82;6.15;;;;;;;-2.76;100.00;103009.81;5049059;28;20029;-72
2024/01/08 07:08:09;;;;;;;14.73;6.95;;;;;;;-2.77;100.00;103010.72;5047718;28;20526;-75
2024/01/08 07:10:35;;;;;;;13.93;6.88;;;;;;;-2.74;100.00;103012.38;5048709;28;20040;-75
2024/01/08 07:13:00;;;;;;;15.75;6.57;;;;;;;-2.73;100.00;103017.50;5048742;28;20074;-75
2024/01/08 07:15:35;;;;;;;13.65;6.00;;;;;;;-2.69;100.00;103016.50;5048535;28;20037;-75
2024/01/08 07:18:00;;;;;;;12.57;5.88;;;;;;;-2.67;100.00;103038.22;5047438;28;20566;-75
2024/01/08 07:20:26;;;;;;;15.55;6.30;;;;;;;-2.68;100.00;103031.25;5048861;28;20120;-76
2024/01/08 07:22:51;;;;;;;14.70;6.82;;;;;;;-2.67;100.00;103032.13;5048932;28;20056;-75
2024/01/08 07:25:16;;;;;;;12.90;6.05;;;;;;;-2.69;100.00;103021.72;5048693;28;20169;-75
2024/01/08 07:27:41;;;;;;;12.15;5.03;;;;;;;-2.65;100.00;103031.16;5048589;28;20107;-75
2024/01/08 07:30:09;;;;;;;10.48;5.40;;;;;;;-2.67;100.00;103032.13;5048822;28;20167;-75
2024/01/08 07:32:35;;;;;;;12.07;5.90;;;;;;;-2.61;100.00;103041.50;5048523;28;20040;-75
2024/01/08 07:35:01;;;;;;;14.23;5.60;;;;;;;-2.59;100.00;103032.69;5048739;28;20029;-78
2024/01/08 07:37:26;;;;;;;13.55;5.32;;;;;;;-2.57;100.00;103032.63;5048872;28;20021;-75
2024/01/08 07:39:51;;;;;;;13.13;5.47;;;;;;;-2.59;100.00;103032.69;5048547;28;20029;-74
2024/01/08 07:42:17;;;;;;;14.05;5.57;;;;;;;-2.52;100.00;103043.75;5048577;28;20132;-74
2024/01/08 07:44:42;;;;;;;9.77;5.55;;;;;;;-2.53;100.00;103034.22;5048654;28;20029;-74
2024/01/08 07:47:07;;;;;;;14.35;6.78;;;;;;;-2.51;100.00;103048.94;5048158;28;20029;-74
2024/01/08 07:49:33;;;;;;;11.13;6.20;;;;;;;-2.48;100.00;103040.13;5046374;28;20178;-74
2024/01/08 07:51:58;;;;;;;12.50;7.15;;;;;;;-2.44;100.00;103046.94;5047650;28;20032;-74
2024/01/08 07:54:23;;;;;;;12.90;6.15;;;;;;;-2.43;100.00;103052.09;5045418;28;20083;-74
2024/01/08 07:56:49;;;;;;;14.75;8.15;;;;;;;-2.44;100.00;103063.47;5045975;28;20044;-74
2024/01/08 07:59:14;;;;;;;10.85;5.18;;;;;;;-2.49;100.00;103043.63;5047616;28;20033;-74
2024/01/08 08:01:39;;;;;;;14.75;7.07;;;;;;;-2.55;100.00;103042.09;5046145;28;20032;-74
2024/01/08 08:04:05;;;;;;;13.93;5.53;;;;;;;-2.45;100.00;103048.69;5047480;28;20051;-74
2024/01/08 08:06:30;;;;;;;10.00;5.45;;;;;;;-2.44;100.00;103052.16;5029763;28;20136;-74
2024/01/08 08:08:56;;;;;;;12.70;5.55;;;;;;;-2.45;100.00;103046.06;5048090;28;20086;-75
2024/01/08 08:11:21;;;;;;;11.18;4.82;;;;;;;-2.42;100.00;103050.34;5048127;28;20072;-74
2024/01/08 08:13:47;;;;;;;14.07;6.55;;;;;;;-2.41;100.00;103054.69;5048002;28;20086;-73
2024/01/08 08:16:12;;;;;;;14.38;5.20;;;;;;;-2.45;100.00;103053.06;5048368;28;20094;-74
2024/01/08 08:18:39;;;;;;;11.63;6.32;;;;;;;-2.44;100.00;103046.94;5046847;28;20473;-74
2024/01/08 08:21:04;;;;;;;9.55;5.00;;;;;;;-2.49;100.00;103054.97;5048280;28;20388;-74
2024/01/08 08:23:32;;;;;;;12.00;4.70;;;;;;;-2.51;100.00;103043.72;5049402;28;20025;-75
2024/01/08 08:25:58;;;;;;;15.63;6.95;;;;;;;-2.46;100.00;103052.22;5049602;28;20029;-74
2024/01/08 08:28:23;;;;;;;12.98;5.38;;;;;;;-2.46;100.00;103051.38;5051812;28;20029;-74
2024/01/08 08:30:49;;;;;;;10.65;5.22;;;;;;;-2.38;100.00;103062.41;5050223;28;20068;-73
2024/01/08 08:33:14;;;;;;;10.77;4.85;;;;;;;-2.43;100.00;103059.94;5049426;28;20061;-73
2024/01/08 08:35:39;;;;;;;11.75;4.68;;;;;;;-2.43;100.00;103067.78;5048254;28;20037;-73
2024/01/08 08:38:05;;;;;;;11.48;5.80;;;;;;;-2.44;100.00;103067.81;5050006;28;20036;-73
2024/01/08 08:40:30;;;;;;;10.95;5.07;;;;;;;-2.45;100.00;103069.59;5049036;28;20139;-74
2024/01/08 08:42:55;;;;;;;11.32;5.00;;;;;;;-2.49;100.00;103065.41;5047429;28;20035;-74
2024/01/08 08:45:21;;;;;;;12.38;6.22;;;;;;;-2.47;100.00;103075.78;5049300;28;20448;-73
2024/01/08 08:47:46;;;;;;;12.05;5.40;;;;;;;-2.51;100.00;103064.59;5049611;28;20491;-73
2024/01/08 08:50:14;;;;;;;10.68;5.20;;;;;;;-2.46;100.00;103077.50;5049728;28;20035;-74
2024/01/08 08:52:40;;;;;;;8.57;5.40;;;;;;;-2.50;100.00;103060.22;5049135;28;20049;-77
2024/01/08 08:55:05;;;;;;;14.77;6.03;;;;;;;-2.50;100.00;103073.28;5048229;28;20043;-76
2024/01/08 08:57:31;;;;;;;12.32;6.20;;;;;;;-2.52;100.00;103075.94;5049452;28;20033;-75
2024/01/08 08:59:56;;;;;;;12.98;5.32;;;;;;;-2.54;100.00;103069.06;5049696;28;20529;-76
2024/01/08 09:02:22;;;;;;;12.00;6.20;;;;;;;-2.46;100.00;103074.91;5047890;28;20033;-76
2024/01/08 09:04:49;;;;;;;11.20;4.93;;;;;;;-2.49;100.00;103072.38;5047963;28;20100;-77
2024/01/08 09:07:14;;;;;;;11.52;5.68;;;;;;;-2.47;100.00;103087.09;5048973;28;20040;-76
2024/01/08 09:09:40;;;;;;;10.77;5.65;;;;;;;-2.45;100.00;103085.28;5047924;28;20037;-76
2024/01/08 09:12:06;;;;;;;12.63;6.63;;;;;;;-2.45;100.00;103087.88;5047846;28;20175;-75
2024/01/08 09:14:31;;;;;;;13.95;5.75;;;;;;;-2.51;100.00;103075.06;5049339;28;20033;-76
2024/01/08 09:16:57;;;;;;;8.25;4.18;;;;;;;-2.49;100.00;103077.59;5048848;28;20037;-76
2024/01/08 09:19:23;;;;;;;12.77;5.65;;;;;;;-2.44;100.00;103089.59;5047738;28;20373;-77
2024/01/08 09:21:48;;;;;;;12.95;5.90;;;;;;;-2.51;100.00;103082.91;5049068;28;20047;-76
2024/01/08 09:24:14;;;;;;;12.43;5.50;;;;;;;-2.57;100.00;103087.47;5048896;28;20040;-76
2024/01/08 09:26:41;;;;;;;14.75;4.97;;;;;;;-2.59;100.00;103089.28;5048615;28;20048;-75
2024/01/08 09:29:08;;;;;;;12.02;4.82;;;;;;;-2.67;100.00;103098.28;5048989;28;20036;-75
2024/01/08 09:31:34;;;;;;;13.18;6.70;;;;;;;-2.69;100.00;103088.78;5048833;28;20036;-75
2024/01/08 09:33:59;;;;;;;14.80;5.70;;;;;;;-2.72;100.00;103102.81;5047006;28;20791;-76
2024/01/08 09:36:24;;;;;;;11.02;6.38;;;;;;;-2.69;100.00;103094.00;5048449;28;20061;-75
2024/01/08 09:38:50;;;;;;;14.68;6.75;;;;;;;-2.62;100.00;103112.91;5048740;28;20060;-76
2024/01/08 09:41:15;;;;;;;11.25;6.68;;;;;;;-2.60;100.00;103106.72;5048806;28;20091;-76
2024/01/08 09:43:46;;;;;;;12.77;5.55;;;;;;;-2.57;100.00;103098.78;5048479;28;20033;-76
2024/01/08 09:46:18;;;;;;;14.52;7.00;;;;;;;-2.51;100.00;103113.41;5047120;28;20036;-76
2024/01/08 09:48:45;;;;;;;13.55;6.30;;;;;;;-2.49;100.00;103114.16;5050136;28;20035;-77
2024/01/08 09:51:11;;;;;;;11.35;6.55;;;;;;;-2.48;100.00;103100.22;5049189;28;20040;-76
2024/01/08 09:53:36;;;;;;;10.25;6.22;;;;;;;-2.42;100.00;103106.06;5048843;28;20043;-75
2024/01/08 09:56:03;;;;;;;11.00;5.85;;;;;;;-2.35;100.00;103108.47;5050602;28;20032;-75
2024/01/08 09:58:28;;;;;;;11.35;5.28;;;;;;;-2.34;100.00;103111.00;5050367;28;20021;-75
2024/01/08 10:00:54;;;;;;;12.27;5.32;;;;;;;-2.31;100.00;103108.28;5050287;28;20047;-75
2024/01/08 10:03:20;;;;;;;15.07;6.50;;;;;;;-2.27;100.00;103119.47;5050184;28;20021;-75
2024/01/08 10:05:46;;;;;;;11.80;5.57;;;;;;;-2.32;100.00;103111.81;5050265;28;20396;-75
2024/01/08 10:08:11;;;;;;;10.15;4.72;;;;;;;-2.35;100.00;103105.84;5050206;28;20025;-75
2024/01/08 10:10:37;;;;;;;10.27;5.07;;;;;;;-2.35;100.00;103111.91;5049941;28;20496;-75
2024/01/08 10:13:03;;;;;;;15.40;6.00;;;;;;;-2.34;100.00;103102.31;5050101;28;20116;-75
2024/01/08 10:15:28;;;;;;;12.43;6.13;;;;;;;-2.30;100.00;103116.97;5050041;28;20028;-75
2024/01/08 10:18:01;;;;;;;10.55;5.32;;;;;;;-2.44;100.00;103102.66;5050008;28;20404;-75
2024/01/08 10:20:27;;;;;;;12.25;6.40;;;;;;;-2.45;100.00;103102.72;5050084;28;20454;-75
2024/01/08 10:23:16;;;;;;;11.43;6.07;;;;;;;-2.50;100.00;103099.41;5033756;28;20040;-75
2024/01/08 10:25:49;;;;;;;13.70;6.57;;;;;;;-2.53;100.00;103100.38;5048925;28;20049;-75
2024/01/08 10:28:16;;;;;;;12.25;5.75;;;;;;;-2.61;100.00;103080.69;5049584;28;20028;-75
2024/01/08 10:30:42;;;;;;;10.55;5.68;;;;;;;-2.56;100.00;103083.97;5049634;28;20040;-75
2024/01/08 10:33:08;;;;;;;12.48;5.45;;;;;;;-2.44;100.00;103096.56;5049670;28;20079;-75
2024/01/08 10:35:35;;;;;;;14.45;5.57;;;;;;;-2.32;100.00;103101.34;5048425;28;20025;-75
2024/01/08 10:38:01;;;;;;;10.52;5.63;;;;;;;-2.28;100.00;103086.41;5048147;28;20029;-75
2024/01/08 10:40:29;;;;;;;13.95;6.90;;;;;;;-2.27;100.00;103095.97;5049666;28;20043;-75
2024/01/08 10:42:56;;;;;;;14.02;6.35;;;;;;;-2.23;100.00;103093.19;5049609;28;20383;-75
2024/01/08 10:45:21;;;;;;;9.95;5.28;;;;;;;-2.14;100.00;103091.97;5049266;28;20031;-75
2024/01/08 10:47:51;;;;;;;11.20;5.55;;;;;;;-2.09;100.00;103099.63;5049020;28;20040;-75
2024/01/08 10:50:20;;;;;;;10.05;4.35;;;;;;;-2.11;100.00;103077.94;5049435;28;20033;-75
2024/01/08 10:52:52;;;;;;;13.25;5.82;;;;;;;-2.10;100.00;103071.78;5049016;28;20127;-75
2024/01/08 10:55:20;;;;;;;10.93;4.32;;;;;;;-2.04;100.00;103069.78;5048974;28;20045;-75
2024/01/08 10:57:57;;;;;;;9.75;5.00;;;;;;;-1.93;100.00;103082.44;5049198;28;20486;-75
2024/01/08 11:00:23;;;;;;;11.95;4.80;;;;;;;-1.90;100.00;103086.69;5048728;28;20060;-75
2024/01/08 11:02:48;;;;;;;10.57;4.88;;;;;;;-1.83;100.00;103069.88;5049099;28;20116;-75